East Lansing, Michigan
Current Conditions -  °F | °C
As of 9:53 AM on Friday 19 Dec 2014 (Local Time) from KLAN Reporting Station
Overcast Overcast  
Wind Chill: 19°   Ceiling: 1800
Heat Index: 26°   Visibility: 10mi
Dew Point: 19°   Wind: 6mph
Humidity: 75%   Direction: 340°NNW
Pressure: 30.28"   Gusts: NA
Location:  42.74°N, 84.48°W
Report Text: KLAN 191453Z 34005KT 10SM OVC018 M03/M07 A3028 RMK AO2 SLP265 T10331072 51012
Loading
Personal Weather Stations






























Interactive Weather Map New forecast layout! Learn more

10-Day Weather Forecast

Advertisements
Track Severe Weather on mobile